Time;durP1;ratioP1;P1;durP2;ratioP2;P2;SDS_P1;SDS_P2;PMS_P1;PMS_P2;Temp;Humidity;BMP_temperature;BMP_pressure;BME280_temperature;BME280_humidity;BME280_pressure;Samples;Min_cycle;Max_cycle;Signal;HPM_P1;HPM_P2
2023/01/01 00:02:01;;;;;;;30.63;27.40;;;;;;;11.71;67.99;95824.13;4372309;32;20207;-61
2023/01/01 00:04:27;;;;;;;31.87;28.30;;;;;;;11.70;67.82;95817.25;4365969;32;20176;-61
2023/01/01 00:06:53;;;;;;;33.63;28.30;;;;;;;11.76;67.76;95815.34;4362508;32;20227;-61
2023/01/01 00:12:02;;;;;;;47.60;29.83;;;;;;;11.76;68.37;95831.28;4374066;32;20211;-61
2023/01/01 00:14:28;;;;;;;37.17;32.27;;;;;;;11.73;68.23;95823.84;4379763;32;20231;-61
2023/01/01 00:16:54;;;;;;;61.80;39.63;;;;;;;11.75;68.17;95834.19;4380982;32;20173;-61
2023/01/01 00:19:20;;;;;;;38.87;34.97;;;;;;;11.76;68.62;95833.94;4377527;32;20181;-61
2023/01/01 00:21:45;;;;;;;43.20;34.07;;;;;;;11.89;68.37;95848.38;4381924;32;20203;-61
2023/01/01 00:24:11;;;;;;;38.60;34.40;;;;;;;11.81;68.84;95857.00;4372906;32;20176;-61
2023/01/01 00:26:36;;;;;;;46.23;36.27;;;;;;;11.89;67.87;95865.13;4380344;32;20229;-61
2023/01/01 00:29:02;;;;;;;39.97;35.67;;;;;;;11.71;68.85;95871.19;4372487;32;20184;-61
2023/01/01 00:31:28;;;;;;;40.70;36.53;;;;;;;11.70;70.11;95873.06;4378011;32;20185;-61
2023/01/01 00:33:54;;;;;;;49.00;35.93;;;;;;;11.75;69.90;95860.78;4377938;32;20180;-61
2023/01/01 00:36:21;;;;;;;54.13;35.73;;;;;;;11.75;69.33;95863.44;4377047;32;20176;-62
2023/01/01 00:38:47;;;;;;;41.30;34.87;;;;;;;11.65;69.67;95867.81;4379960;32;20203;-61
2023/01/01 00:41:14;;;;;;;42.37;36.30;;;;;;;11.58;70.28;95878.00;4378307;32;20185;-61
2023/01/01 00:43:40;;;;;;;40.37;36.03;;;;;;;11.53;70.68;95875.41;4375917;32;20440;-61
2023/01/01 00:46:09;;;;;;;35.17;30.87;;;;;;;11.48;70.10;95883.44;4381927;32;20219;-61
2023/01/01 00:48:34;;;;;;;45.93;32.13;;;;;;;11.56;69.99;95877.50;4372970;32;20181;-61
2023/01/01 00:51:00;;;;;;;39.07;32.47;;;;;;;11.57;69.20;95883.63;4363813;32;20268;-61
2023/01/01 00:53:25;;;;;;;37.87;30.00;;;;;;;11.48;69.90;95887.97;4361000;32;20185;-61
2023/01/01 00:55:51;;;;;;;35.83;29.67;;;;;;;11.47;69.39;95884.50;4373291;32;20301;-61
2023/01/01 00:58:18;;;;;;;50.53;27.80;;;;;;;11.52;70.83;95878.34;4383433;32;20205;-61
2023/01/01 01:00:44;;;;;;;30.40;27.20;;;;;;;11.38;71.24;95888.88;4384742;32;20199;-61
2023/01/01 01:03:26;;;;;;;32.50;29.20;;;;;;;11.48;69.85;95888.75;4372516;32;20287;-61
2023/01/01 01:05:56;;;;;;;31.93;25.13;;;;;;;11.32;70.84;95890.00;4361875;32;20185;-61
2023/01/01 01:08:22;;;;;;;33.00;29.53;;;;;;;11.32;70.04;95896.12;4374565;32;20243;-61
2023/01/01 01:10:47;;;;;;;29.37;26.43;;;;;;;11.28;70.25;95889.00;4383700;32;20173;-60
2023/01/01 01:13:12;;;;;;;26.70;24.13;;;;;;;11.29;71.28;95883.41;4371371;32;20195;-61
2023/01/01 01:15:38;;;;;;;32.53;28.90;;;;;;;11.21;70.71;95888.56;4384388;32;20192;-61
2023/01/01 01:18:03;;;;;;;31.83;25.30;;;;;;;11.19;71.38;95903.97;4389496;32;20173;-61
2023/01/01 01:20:28;;;;;;;25.37;22.97;;;;;;;11.23;70.81;95895.16;4378497;32;20212;-61
2023/01/01 01:22:54;;;;;;;32.20;25.97;;;;;;;11.26;70.79;95907.06;4380781;32;20195;-61
2023/01/01 01:25:20;;;;;;;30.00;24.93;;;;;;;11.23;71.25;95897.81;4382675;32;20188;-62
2023/01/01 01:27:45;;;;;;;24.83;22.23;;;;;;;11.27;71.05;95913.97;4394616;32;20196;-61
2023/01/01 01:30:10;;;;;;;26.50;21.90;;;;;;;11.28;70.46;95920.88;4373991;32;20185;-61
2023/01/01 01:32:36;;;;;;;23.57;20.07;;;;;;;11.39;71.02;95911.72;4368538;32;20172;-61
2023/01/01 01:35:01;;;;;;;22.63;16.07;;;;;;;11.32;69.88;95912.06;4378216;32;20185;-61
2023/01/01 01:37:27;;;;;;;10.37;9.47;;;;;;;11.28;69.23;95920.88;4382122;32;20263;-61
2023/01/01 01:39:52;;;;;;;18.70;17.00;;;;;;;11.34;67.82;95919.75;4377941;32;20195;-61
2023/01/01 01:42:18;;;;;;;18.13;14.47;;;;;;;11.47;69.52;95915.59;4380447;32;20181;-61
2023/01/01 01:45:04;;;;;;;10.50;9.63;;;;;;;11.42;69.58;95913.03;4387894;32;20172;-61
2023/01/01 01:47:38;;;;;;;13.13;11.73;;;;;;;11.51;67.09;95920.06;4382256;32;20184;-61
2023/01/01 01:50:25;;;;;;;9.37;8.67;;;;;;;11.53;67.62;95920.59;4380305;32;20207;-61
2023/01/01 01:53:06;;;;;;;15.87;9.93;;;;;;;11.52;67.61;95919.00;4378694;32;20185;-61
2023/01/01 01:55:35;;;;;;;9.67;8.77;;;;;;;11.55;67.74;95918.44;4366009;32;20231;-61
2023/01/01 01:58:02;;;;;;;9.77;8.73;;;;;;;11.52;68.20;95923.53;4370402;32;20201;-61
2023/01/01 02:00:27;;;;;;;8.10;7.40;;;;;;;11.50;67.73;95918.50;4402246;32;20177;-61
2023/01/01 02:03:02;;;;;;;8.20;7.53;;;;;;;11.42;67.20;95913.03;4379760;32;20180;-61
2023/01/01 02:05:28;;;;;;;8.07;7.40;;;;;;;11.48;67.12;95911.88;4386648;32;20180;-62
2023/01/01 02:07:54;;;;;;;4.93;4.53;;;;;;;11.46;66.01;95900.75;4381491;32;20201;-62
2023/01/01 02:10:20;;;;;;;4.37;4.17;;;;;;;11.46;63.57;95901.53;4374601;32;20180;-62
2023/01/01 02:12:46;;;;;;;5.87;5.27;;;;;;;11.46;63.30;95890.91;4386355;32;20172;-61
2023/01/01 02:15:11;;;;;;;4.97;4.43;;;;;;;11.53;62.95;95895.88;4376852;32;20204;-61
2023/01/01 02:17:51;;;;;;;4.87;4.47;;;;;;;11.45;63.60;95897.28;4385116;32;20176;-62
2023/01/01 02:20:22;;;;;;;5.73;5.07;;;;;;;11.51;63.43;95887.41;4384560;32;20188;-61
2023/01/01 02:23:03;;;;;;;6.63;5.90;;;;;;;11.46;63.77;95900.75;4368189;32;20184;-62
2023/01/01 02:25:53;;;;;;;6.27;5.80;;;;;;;11.48;65.60;95895.94;4368868;32;20192;-62
2023/01/01 02:28:22;;;;;;;4.00;3.67;;;;;;;11.47;65.79;95894.34;4378808;32;20208;-61
2023/01/01 02:30:49;;;;;;;5.23;4.83;;;;;;;11.51;64.93;95901.47;4384289;32;20223;-61
2023/01/01 02:33:20;;;;;;;3.33;3.13;;;;;;;11.45;65.71;95894.63;4362548;32;20181;-62
2023/01/01 02:35:51;;;;;;;12.70;4.43;;;;;;;11.41;63.90;95893.66;4375796;32;20199;-61
2023/01/01 02:38:23;;;;;;;4.10;3.80;;;;;;;11.45;63.70;95891.97;4381289;32;20222;-62
2023/01/01 02:40:54;;;;;;;3.80;3.60;;;;;;;11.46;64.85;95890.09;4381065;32;20202;-61
2023/01/01 02:43:19;;;;;;;6.10;5.70;;;;;;;11.50;64.10;95885.81;4397161;32;20180;-61
2023/01/01 02:45:45;;;;;;;2.47;2.23;;;;;;;11.50;65.16;95886.59;4390164;32;20199;-61
2023/01/01 02:48:37;;;;;;;3.40;3.20;;;;;;;11.55;63.11;95878.59;4386857;32;20181;-61
2023/01/01 02:51:15;;;;;;;3.47;3.27;;;;;;;11.61;63.78;95874.78;4367280;32;20181;-61
2023/01/01 02:53:54;;;;;;;1.40;1.40;;;;;;;11.57;63.27;95871.13;4373080;32;20195;-62
2023/01/01 02:56:37;;;;;;;1.97;1.87;;;;;;;11.51;63.27;95884.75;4378694;32;20176;-62
2023/01/01 03:02:31;;;;;;;2.40;2.23;;;;;;;11.54;62.62;95892.94;4375330;32;20191;-62
2023/01/01 03:05:05;;;;;;;2.60;2.50;;;;;;;11.58;63.57;95880.66;4378096;32;20176;-61
2023/01/01 03:07:58;;;;;;;1.50;1.50;;;;;;;11.64;62.10;95894.66;4389370;32;20185;-61
2023/01/01 03:10:29;;;;;;;2.53;1.63;;;;;;;11.65;62.29;95893.59;4378813;32;20184;-62
2023/01/01 03:13:00;;;;;;;2.27;2.17;;;;;;;11.55;62.65;95891.06;4368294;32;20181;-61
2023/01/01 03:15:46;;;;;;;2.33;2.23;;;;;;;11.64;62.79;95886.69;4378055;32;20215;-61
2023/01/01 03:18:23;;;;;;;3.00;2.53;;;;;;;11.55;63.66;95880.44;4384322;32;20195;-62
2023/01/01 03:20:53;;;;;;;1.70;1.60;;;;;;;11.39;63.32;95885.16;4367843;32;20177;-61
2023/01/01 03:23:24;;;;;;;3.70;2.53;;;;;;;11.47;63.83;95887.16;4386098;32;20192;-61
2023/01/01 03:25:55;;;;;;;3.10;2.90;;;;;;;11.51;64.37;95885.53;4376075;32;20181;-62
2023/01/01 03:28:34;;;;;;;2.53;2.37;;;;;;;11.54;63.53;95892.94;4386259;32;20177;-62
2023/01/01 03:30:59;;;;;;;2.83;2.63;;;;;;;11.46;65.10;95888.25;4377108;32;20231;-61
2023/01/01 03:33:37;;;;;;;2.67;2.57;;;;;;;11.41;65.71;95885.66;4380206;32;20204;-61
2023/01/01 03:36:08;;;;;;;2.53;2.37;;;;;;;11.40;66.27;95894.72;4377449;32;20203;-61
2023/01/01 03:38:42;;;;;;;3.30;3.10;;;;;;;11.43;64.40;95899.44;4385287;32;20234;-61
2023/01/01 03:41:13;;;;;;;3.43;2.87;;;;;;;11.40;64.35;95908.00;4396203;32;20189;-61
2023/01/01 03:43:41;;;;;;;3.13;2.93;;;;;;;11.35;65.75;95911.50;4379401;32;20260;-61
2023/01/01 03:46:07;;;;;;;3.57;3.37;;;;;;;11.23;66.98;95915.59;4379804;32;20172;-62
2023/01/01 03:48:54;;;;;;;3.47;3.17;;;;;;;11.17;67.83;95908.78;4386043;32;20223;-61
2023/01/01 03:51:25;;;;;;;2.17;2.07;;;;;;;11.22;67.15;95912.16;4370685;32;20264;-61
2023/01/01 03:53:54;;;;;;;2.00;1.90;;;;;;;11.16;67.64;95923.94;4361610;32;20232;-62
2023/01/01 03:56:32;;;;;;;4.13;3.83;;;;;;;11.25;66.87;95924.88;4362751;32;20184;-61
2023/01/01 03:59:13;;;;;;;3.07;2.87;;;;;;;11.26;66.54;95933.63;4361799;32;20173;-62
2023/01/01 04:01:43;;;;;;;2.27;2.17;;;;;;;11.05;67.38;95934.91;4370943;32;20211;-61
2023/01/01 04:04:11;;;;;;;3.03;2.83;;;;;;;11.00;67.79;95939.22;4370879;32;20180;-61
2023/01/01 04:06:36;;;;;;;3.10;2.90;;;;;;;10.90;68.05;95936.66;4386497;32;20191;-62
2023/01/01 04:09:03;;;;;;;3.10;2.90;;;;;;;10.92;68.48;95933.72;4380357;32;20192;-62
2023/01/01 04:14:41;;;;;;;3.73;3.47;;;;;;;10.83;68.92;95932.72;4350659;32;20177;-62
2023/01/01 04:17:09;;;;;;;5.20;3.20;;;;;;;10.78;69.42;95943.41;4370421;32;20176;-61
2023/01/01 04:19:35;;;;;;;5.63;3.50;;;;;;;10.74;69.84;95937.06;4380777;32;20191;-61
2023/01/01 04:22:01;;;;;;;3.17;2.87;;;;;;;10.76;69.59;95930.41;4384480;32;20216;-61
2023/01/01 04:24:27;;;;;;;3.90;3.40;;;;;;;10.79;70.72;95923.75;4397659;32;20187;-61
2023/01/01 04:26:53;;;;;;;2.70;2.60;;;;;;;10.86;68.88;95922.34;4382798;32;20180;-62
2023/01/01 04:29:20;;;;;;;3.23;2.90;;;;;;;10.90;68.27;95919.94;4381980;32;20199;-61
2023/01/01 04:31:45;;;;;;;6.57;3.23;;;;;;;10.90;68.72;95927.91;4376172;32;20251;-61
2023/01/01 04:34:11;;;;;;;3.10;2.90;;;;;;;10.92;67.62;95926.56;4381741;32;20188;-61
2023/01/01 04:36:36;;;;;;;3.77;3.57;;;;;;;10.94;68.24;95927.06;4379351;32;20235;-61
2023/01/01 04:39:02;;;;;;;2.70;2.50;;;;;;;10.99;68.29;95927.03;4377962;32;20188;-62
2023/01/01 04:41:28;;;;;;;2.97;2.77;;;;;;;10.93;68.58;95930.78;4360382;32;20185;-61
2023/01/01 04:43:53;;;;;;;3.63;3.43;;;;;;;11.00;67.19;95933.91;4362042;32;20245;-62
2023/01/01 04:46:20;;;;;;;3.33;3.07;;;;;;;11.03;66.93;95935.97;4365148;32;20172;-61
2023/01/01 04:48:46;;;;;;;3.57;3.27;;;;;;;11.05;67.44;95932.25;4365334;32;20185;-61
2023/01/01 04:51:14;;;;;;;4.57;3.50;;;;;;;11.09;68.02;95938.59;4370225;32;20177;-61
2023/01/01 04:53:40;;;;;;;4.30;3.77;;;;;;;10.86;68.40;95945.44;4367984;32;20275;-62
2023/01/01 04:56:08;;;;;;;3.37;3.17;;;;;;;10.98;68.47;95944.03;4367952;32;20263;-61
2023/01/01 04:58:35;;;;;;;5.33;3.43;;;;;;;10.79;68.74;95940.47;4368090;32;20184;-61
2023/01/01 05:01:00;;;;;;;4.57;4.27;;;;;;;10.70;69.36;95944.00;4368029;32;20239;-62
2023/01/01 05:03:27;;;;;;;4.30;3.40;;;;;;;10.80;69.72;95947.38;4367443;32;20267;-61
2023/01/01 05:06:20;;;;;;;3.70;2.73;;;;;;;10.76;68.26;95951.66;4370584;32;20180;-62
2023/01/01 05:08:47;;;;;;;2.37;2.17;;;;;;;10.68;67.61;95945.06;4375312;32;20189;-61
2023/01/01 05:11:18;;;;;;;4.63;1.93;;;;;;;10.57;67.28;95948.09;4379208;32;20181;-61
2023/01/01 05:13:45;;;;;;;1.70;1.60;;;;;;;10.54;67.81;95946.00;4382612;32;20192;-62
2023/01/01 05:16:14;;;;;;;1.70;1.67;;;;;;;10.60;67.27;95960.78;4370561;32;20196;-61
2023/01/01 05:18:40;;;;;;;1.70;1.60;;;;;;;10.70;66.61;95955.41;4367721;32;20272;-61
2023/01/01 05:21:10;;;;;;;1.97;1.87;;;;;;;10.78;66.73;95960.13;4384249;32;20233;-61
2023/01/01 05:23:35;;;;;;;1.60;1.50;;;;;;;10.78;66.66;95954.03;4395445;32;20191;-61
2023/01/01 05:26:11;;;;;;;1.80;1.70;;;;;;;10.65;67.74;95958.09;4374592;32;20180;-61
2023/01/01 05:28:37;;;;;;;2.50;2.30;;;;;;;10.53;67.89;95958.47;4387489;32;20180;-62
2023/01/01 05:31:08;;;;;;;1.60;1.57;;;;;;;10.59;67.91;95959.22;4373083;32;20204;-62
2023/01/01 05:33:35;;;;;;;1.37;1.37;;;;;;;10.59;67.34;95952.06;4377402;32;20227;-61
2023/01/01 05:36:01;;;;;;;1.77;1.60;;;;;;;10.60;68.09;95958.12;4378760;32;20216;-61
2023/01/01 05:38:27;;;;;;;2.80;2.47;;;;;;;10.60;68.02;95955.47;4377218;32;20177;-61
2023/01/01 05:40:52;;;;;;;1.10;1.10;;;;;;;10.57;67.76;95958.69;4377168;32;20309;-62
2023/01/01 05:43:17;;;;;;;1.40;1.37;;;;;;;10.66;67.40;95949.84;4376427;32;20177;-61
2023/01/01 05:45:43;;;;;;;1.17;1.17;;;;;;;10.61;66.19;95954.41;4380085;32;20190;-62
2023/01/01 05:48:10;;;;;;;2.30;1.20;;;;;;;10.71;66.58;95954.34;4379688;32;20173;-62
2023/01/01 05:50:35;;;;;;;1.73;1.63;;;;;;;10.78;65.59;95960.13;4380999;32;20309;-61
2023/01/01 05:53:01;;;;;;;1.20;1.20;;;;;;;10.82;66.00;95969.09;4378347;32;20196;-61
2023/01/01 05:55:26;;;;;;;1.30;1.30;;;;;;;10.81;66.02;95959.53;4394661;32;20200;-61
2023/01/01 05:57:52;;;;;;;1.30;1.30;;;;;;;10.75;66.00;95971.28;4380295;32;20259;-61
2023/01/01 06:00:17;;;;;;;2.57;1.30;;;;;;;10.78;65.88;95962.78;4375291;32;20173;-62
2023/01/01 06:02:42;;;;;;;1.77;1.67;;;;;;;10.71;66.65;95977.44;4378072;32;20177;-61
2023/01/01 06:05:08;;;;;;;1.00;1.00;;;;;;;10.76;66.65;95983.50;4376887;32;20199;-61
2023/01/01 06:07:33;;;;;;;0.90;0.90;;;;;;;10.77;66.13;95984.28;4391192;32;20199;-61
2023/01/01 06:09:58;;;;;;;0.90;0.90;;;;;;;10.84;66.05;95990.84;4383422;32;20227;-62
2023/01/01 06:12:24;;;;;;;1.53;1.43;;;;;;;10.85;65.52;95991.63;4389935;32;20234;-61
2023/01/01 06:14:49;;;;;;;2.17;1.03;;;;;;;10.88;65.39;95991.87;4380124;32;20220;-61
2023/01/01 06:17:14;;;;;;;1.17;1.10;;;;;;;10.89;64.72;95982.06;4379025;32;20193;-61
2023/01/01 06:19:40;;;;;;;1.00;0.97;;;;;;;10.88;65.10;95986.56;4395686;32;20276;-61
2023/01/01 06:22:05;;;;;;;0.70;0.70;;;;;;;10.99;64.81;95987.28;4366904;32;20185;-62
2023/01/01 06:24:31;;;;;;;1.07;1.07;;;;;;;11.05;64.60;95993.31;4382834;32;20180;-62
2023/01/01 06:26:56;;;;;;;0.80;0.80;;;;;;;11.13;63.66;95987.41;4381353;32;20200;-62
2023/01/01 06:29:21;;;;;;;1.10;1.10;;;;;;;11.19;62.78;95995.06;4380887;32;20215;-62
2023/01/01 06:31:47;;;;;;;0.73;0.73;;;;;;;11.25;62.70;95991.28;4378598;32;20212;-61
2023/01/01 06:34:12;;;;;;;0.50;0.50;;;;;;;11.35;61.88;95990.41;4377768;32;20218;-61
2023/01/01 06:36:37;;;;;;;0.30;0.30;;;;;;;11.47;61.26;95998.75;4376772;32;20211;-61
2023/01/01 06:39:03;;;;;;;0.47;0.47;;;;;;;11.57;61.21;96003.97;4388394;32;20176;-62
2023/01/01 06:41:29;;;;;;;1.33;0.93;;;;;;;11.57;61.30;95996.00;4386229;32;20203;-61
2023/01/01 06:43:56;;;;;;;0.50;0.50;;;;;;;11.67;60.77;95998.53;4385540;32;20176;-61
2023/01/01 06:46:27;;;;;;;0.60;0.60;;;;;;;11.71;60.16;96002.22;4388994;32;20367;-62
2023/01/01 06:48:55;;;;;;;0.87;0.87;;;;;;;11.77;60.43;96013.63;4383392;32;20201;-61
2023/01/01 06:51:22;;;;;;;0.83;0.83;;;;;;;11.79;61.31;96013.34;4403437;32;20176;-61
2023/01/01 06:53:48;;;;;;;0.70;0.70;;;;;;;11.79;61.62;96000.06;4387519;32;20195;-61
2023/01/01 06:56:14;;;;;;;0.40;0.40;;;;;;;11.80;60.22;95988.34;4379623;32;20231;-61
2023/01/01 06:58:40;;;;;;;1.07;0.93;;;;;;;11.87;60.16;96002.84;4375399;32;20181;-61
2023/01/01 07:01:09;;;;;;;1.07;1.07;;;;;;;11.83;59.68;96012.50;4372858;32;20202;-61
2023/01/01 07:03:36;;;;;;;0.50;0.50;;;;;;;11.81;61.30;96027.94;4379905;32;20176;-61
2023/01/01 07:06:01;;;;;;;1.10;1.07;;;;;;;11.91;60.81;96024.34;4375766;32;20196;-61
2023/01/01 07:08:27;;;;;;;0.50;0.50;;;;;;;11.80;61.92;96028.22;4365480;32;20186;-61
2023/01/01 07:10:52;;;;;;;0.23;0.23;;;;;;;11.80;60.99;96022.91;4371189;32;20181;-61
2023/01/01 07:13:18;;;;;;;1.43;1.33;;;;;;;11.68;61.65;96032.03;4369098;32;20209;-61
2023/01/01 07:15:43;;;;;;;0.90;0.90;;;;;;;11.76;60.85;96032.47;4377360;32;20189;-61
2023/01/01 07:18:09;;;;;;;2.70;0.67;;;;;;;11.74;62.37;96034.62;4379628;32;20172;-61
2023/01/01 07:20:34;;;;;;;0.70;0.70;;;;;;;11.78;61.04;96039.13;4375103;32;20215;-61
2023/01/01 07:23:01;;;;;;;0.77;0.77;;;;;;;11.87;61.56;96045.41;4389510;32;20229;-61
2023/01/01 07:25:26;;;;;;;0.60;0.60;;;;;;;11.77;61.71;96047.38;4387207;32;20177;-61
2023/01/01 07:27:52;;;;;;;0.90;0.90;;;;;;;11.80;60.98;96054.81;4389685;32;20199;-61
2023/01/01 07:30:17;;;;;;;0.70;0.70;;;;;;;11.76;62.74;96049.25;4401873;32;20213;-61
2023/01/01 07:32:42;;;;;;;0.83;0.83;;;;;;;11.78;61.76;96046.31;4389429;32;20180;-61
2023/01/01 07:35:08;;;;;;;1.17;0.60;;;;;;;11.70;63.16;96051.13;4399976;32;20189;-61
2023/01/01 07:37:33;;;;;;;0.40;0.40;;;;;;;11.69;61.73;96052.22;4389492;32;20195;-61
2023/01/01 07:39:58;;;;;;;0.40;0.40;;;;;;;11.67;61.88;96062.31;4389986;32;20172;-61
2023/01/01 07:42:24;;;;;;;0.40;0.40;;;;;;;11.75;62.49;96057.47;4388253;32;20195;-61
2023/01/01 07:44:49;;;;;;;1.90;1.30;;;;;;;11.69;62.67;96059.38;4390161;32;20181;-61
2023/01/01 07:47:22;;;;;;;0.40;0.40;;;;;;;11.83;62.73;96070.19;4387997;32;20185;-61
2023/01/01 07:49:48;;;;;;;0.50;0.50;;;;;;;11.65;63.29;96077.75;4388454;32;20187;-61
2023/01/01 07:52:14;;;;;;;0.57;0.57;;;;;;;11.78;64.14;96079.00;4384567;32;20180;-61
2023/01/01 07:54:39;;;;;;;0.80;0.80;;;;;;;11.75;62.82;96068.09;4386838;32;20181;-61
2023/01/01 07:57:04;;;;;;;0.53;0.53;;;;;;;11.75;63.40;96076.09;4374294;32;20211;-61
2023/01/01 07:59:31;;;;;;;0.77;0.77;;;;;;;11.86;62.05;96081.03;4380082;32;20298;-61
2023/01/01 08:01:56;;;;;;;0.43;0.43;;;;;;;11.88;62.23;96083.41;4375469;32;20176;-61
2023/01/01 08:04:22;;;;;;;0.83;0.83;;;;;;;11.86;60.50;96086.34;4372151;32;20177;-61
2023/01/01 08:06:47;;;;;;;1.20;1.10;;;;;;;11.88;63.58;96094.03;4384224;32;20176;-61
2023/01/01 08:09:12;;;;;;;0.80;0.80;;;;;;;11.84;62.18;96093.06;4379965;32;20257;-61
2023/01/01 08:11:38;;;;;;;0.87;0.77;;;;;;;11.84;61.38;96093.06;4381385;32;20253;-60
2023/01/01 08:14:03;;;;;;;0.87;0.87;;;;;;;11.75;61.56;96090.16;4379636;32;20189;-61
2023/01/01 08:16:28;;;;;;;0.20;0.20;;;;;;;11.85;60.90;96094.59;4382464;32;20202;-61
2023/01/01 08:18:54;;;;;;;0.30;0.30;;;;;;;11.91;61.17;96093.47;4381750;32;20219;-61
2023/01/01 08:21:19;;;;;;;1.03;1.03;;;;;;;11.93;60.47;96092.13;4391089;32;20228;-61
2023/01/01 08:23:44;;;;;;;0.93;0.60;;;;;;;11.94;61.28;96087.59;4380084;32;20196;-61
2023/01/01 08:26:17;;;;;;;0.80;0.80;;;;;;;11.83;61.42;96084.28;4386544;32;22012;-61
2023/01/01 08:28:43;;;;;;;0.40;0.40;;;;;;;11.83;61.32;96086.94;4380199;32;20184;-61
2023/01/01 08:31:08;;;;;;;0.50;0.50;;;;;;;11.88;61.53;96083.41;4380155;32;20258;-61
2023/01/01 08:33:33;;;;;;;0.93;0.73;;;;;;;11.95;60.96;96089.19;4381003;32;20189;-61
2023/01/01 08:35:59;;;;;;;0.50;0.50;;;;;;;11.94;61.34;96084.94;4364106;32;20180;-61
2023/01/01 08:38:25;;;;;;;0.53;0.50;;;;;;;12.14;60.03;96087.38;4380228;32;20219;-61
2023/01/01 08:40:50;;;;;;;0.33;0.33;;;;;;;12.09;60.15;96094.62;4374385;32;20184;-61
2023/01/01 08:43:16;;;;;;;0.40;0.40;;;;;;;12.07;60.24;96091.44;4381745;32;20217;-61
2023/01/01 08:45:41;;;;;;;0.13;0.13;;;;;;;12.05;61.39;96083.78;4379122;32;20189;-61
2023/01/01 08:48:06;;;;;;;1.17;1.03;;;;;;;12.05;61.50;96089.09;4380138;32;20196;-61
2023/01/01 08:50:32;;;;;;;0.47;0.47;;;;;;;12.03;61.43;96092.03;4380471;32;20184;-61
2023/01/01 08:52:58;;;;;;;0.40;0.33;;;;;;;12.11;60.59;96090.59;4378128;32;20177;-61
2023/01/01 08:55:23;;;;;;;0.63;0.43;;;;;;;12.28;59.93;96100.78;4383939;32;20263;-61
2023/01/01 08:57:49;;;;;;;0.60;0.60;;;;;;;12.29;59.78;96103.16;4389487;32;20192;-61
2023/01/01 09:00:15;;;;;;;1.00;1.00;;;;;;;12.31;61.23;96105.53;4376950;32;20172;-61
2023/01/01 09:02:40;;;;;;;0.80;0.80;;;;;;;12.29;60.04;96095.19;4381281;32;20173;-61
2023/01/01 09:05:07;;;;;;;0.67;0.67;;;;;;;12.25;61.48;96099.50;4365500;32;20181;-61
2023/01/01 09:07:32;;;;;;;1.87;1.47;;;;;;;12.31;62.46;96101.00;4383015;32;20185;-61
2023/01/01 09:09:57;;;;;;;0.73;0.73;;;;;;;12.36;60.23;96100.94;4380139;32;20198;-61
2023/01/01 09:12:23;;;;;;;0.50;0.50;;;;;;;12.34;61.03;96103.09;4378369;32;20181;-62
2023/01/01 09:14:48;;;;;;;0.30;0.30;;;;;;;12.35;61.74;96110.00;4383626;32;20193;-61
2023/01/01 09:17:14;;;;;;;0.70;0.70;;;;;;;12.50;60.16;96113.56;4375565;32;20177;-61
2023/01/01 09:19:39;;;;;;;0.60;0.60;;;;;;;12.60;59.48;96110.78;4385427;32;20187;-61
2023/01/01 09:22:09;;;;;;;0.83;0.83;;;;;;;12.64;59.69;96117.12;4386638;32;20189;-61
2023/01/01 09:24:34;;;;;;;0.47;0.47;;;;;;;12.52;61.59;96122.03;4383270;32;20207;-61
2023/01/01 09:27:00;;;;;;;0.67;0.67;;;;;;;12.49;61.54;96126.06;4380165;32;20189;-61
2023/01/01 09:29:25;;;;;;;0.60;0.60;;;;;;;12.50;61.04;96121.53;4390130;32;20215;-61
2023/01/01 09:31:50;;;;;;;0.80;0.70;;;;;;;12.52;61.27;96130.81;4379770;32;20185;-61
2023/01/01 09:34:16;;;;;;;0.30;0.30;;;;;;;12.55;60.50;96124.13;4382160;32;20185;-61
2023/01/01 09:36:42;;;;;;;0.43;0.43;;;;;;;12.62;60.73;96135.25;4385732;32;20251;-61
2023/01/01 09:39:11;;;;;;;0.50;0.50;;;;;;;12.63;61.24;96134.97;4383536;32;20250;-61
2023/01/01 09:42:06;;;;;;;0.20;0.20;;;;;;;12.67;61.07;96135.19;4387354;32;20192;-61
2023/01/01 09:45:04;;;;;;;0.60;0.60;;;;;;;12.64;62.06;96133.09;4376094;32;20234;-61
2023/01/01 09:47:35;;;;;;;1.23;1.20;;;;;;;12.77;60.49;96127.03;4377451;32;20207;-64
2023/01/01 09:50:05;;;;;;;0.80;0.80;;;;;;;12.85;60.55;96128.28;4377267;32;20302;-61
2023/01/01 09:52:42;;;;;;;0.63;0.60;;;;;;;12.87;61.69;96126.12;4377544;32;20303;-61
2023/01/01 09:55:21;;;;;;;0.77;0.77;;;;;;;12.85;60.90;96122.97;4380364;32;20225;-61
2023/01/01 09:57:46;;;;;;;0.87;0.53;;;;;;;12.88;60.78;96123.19;4385059;32;20256;-61
2023/01/01 10:00:17;;;;;;;1.67;1.57;;;;;;;12.93;60.82;96115.09;4389643;32;20234;-61
2023/01/01 10:03:05;;;;;;;0.50;0.50;;;;;;;12.99;60.80;96113.97;4384219;32;20223;-61
2023/01/01 10:05:52;;;;;;;0.80;0.80;;;;;;;12.99;60.51;96119.28;4380525;32;20249;-61
2023/01/01 10:08:42;;;;;;;0.93;0.93;;;;;;;13.12;60.33;96117.75;4392813;32;20191;-61
2023/01/01 10:11:25;;;;;;;0.90;0.90;;;;;;;13.09;61.49;96113.03;4378894;32;20190;-61
2023/01/01 10:13:55;;;;;;;1.23;1.10;;;;;;;13.07;60.97;96113.31;4386811;32;20217;-61
2023/01/01 10:16:39;;;;;;;1.33;0.70;;;;;;;13.18;60.36;96107.84;4387715;32;20230;-61
2023/01/01 10:19:19;;;;;;;0.40;0.40;;;;;;;13.23;59.73;96110.44;4379861;32;20177;-61
2023/01/01 10:21:46;;;;;;;0.77;0.77;;;;;;;13.27;59.27;96100.78;4383416;32;20224;-61
2023/01/01 10:24:24;;;;;;;0.33;0.33;;;;;;;13.38;58.66;96095.00;4379135;32;20315;-61
2023/01/01 10:26:52;;;;;;;0.63;0.63;;;;;;;13.37;58.75;96092.63;4378926;32;20184;-61
2023/01/01 10:29:35;;;;;;;0.67;0.67;;;;;;;13.46;58.79;96093.56;4375325;32;20189;-61
2023/01/01 10:32:32;;;;;;;2.83;0.47;;;;;;;13.56;58.27;96090.69;4381873;32;20234;-61
2023/01/01 10:35:01;;;;;;;0.90;0.90;;;;;;;13.50;58.65;96094.56;4383924;32;20216;-61
2023/01/01 10:37:34;;;;;;;0.50;0.50;;;;;;;13.55;58.11;96088.31;4398843;32;20232;-61
2023/01/01 10:40:05;;;;;;;1.20;1.10;;;;;;;13.50;58.72;96081.22;4375642;32;20202;-61
2023/01/01 10:42:30;;;;;;;0.70;0.70;;;;;;;13.51;59.48;96076.69;4370477;32;20196;-60
2023/01/01 10:44:58;;;;;;;0.40;0.40;;;;;;;13.57;58.25;96075.50;4366980;32;20185;-61
2023/01/01 10:47:28;;;;;;;0.90;0.80;;;;;;;13.61;58.10;96066.63;4392662;32;20188;-61
2023/01/01 10:49:58;;;;;;;0.67;0.67;;;;;;;13.63;58.08;96077.00;4381129;32;20184;-61
2023/01/01 10:52:27;;;;;;;0.63;0.57;;;;;;;13.65;57.88;96077.50;4371218;32;20181;-61
2023/01/01 10:54:52;;;;;;;0.80;0.80;;;;;;;13.67;57.79;96076.13;4359697;32;20182;-62
2023/01/01 10:57:26;;;;;;;2.47;0.60;;;;;;;13.64;58.04;96065.25;4372303;32;20223;-61
2023/01/01 10:59:52;;;;;;;0.43;0.37;;;;;;;13.66;58.24;96071.09;4378013;32;20187;-61
2023/01/01 11:02:27;;;;;;;0.30;0.30;;;;;;;13.70;58.00;96064.88;4377813;32;20198;-61
2023/01/01 11:05:12;;;;;;;0.63;0.63;;;;;;;13.75;57.98;96069.31;4376487;32;20177;-62
2023/01/01 11:07:40;;;;;;;0.40;0.40;;;;;;;13.80;57.98;96068.44;4382624;32;20280;-61
2023/01/01 11:10:13;;;;;;;0.50;0.50;;;;;;;13.88;57.51;96071.22;4394649;32;20211;-61
2023/01/01 11:12:39;;;;;;;0.50;0.50;;;;;;;13.95;57.18;96066.25;4383918;32;20195;-62
2023/01/01 11:15:05;;;;;;;0.40;0.40;;;;;;;14.02;57.45;96061.31;4378843;32;20185;-61
2023/01/01 11:17:33;;;;;;;0.43;0.43;;;;;;;14.05;57.22;96062.63;4378847;32;20238;-61
2023/01/01 11:20:01;;;;;;;0.67;0.67;;;;;;;14.09;57.20;96058.28;4374565;32;20233;-61
2023/01/01 11:22:49;;;;;;;0.60;0.60;;;;;;;14.11;57.26;96053.44;4387880;32;20207;-61
2023/01/01 11:25:33;;;;;;;0.93;0.80;;;;;;;14.22;56.78;96040.66;4379652;32;20185;-61
2023/01/01 11:28:33;;;;;;;0.67;0.67;;;;;;;14.26;57.02;96037.09;4374360;32;20236;-61
2023/01/01 11:31:18;;;;;;;0.87;0.87;;;;;;;14.28;56.72;96040.28;4364619;32;20189;-61
2023/01/01 11:33:51;;;;;;;0.40;0.40;;;;;;;14.35;56.52;96027.28;4382142;32;20196;-61
2023/01/01 11:36:28;;;;;;;0.40;0.40;;;;;;;14.38;56.81;96025.91;4371225;32;20185;-61
2023/01/01 11:39:12;;;;;;;8.37;0.63;;;;;;;14.40;56.56;96021.87;4373072;32;20184;-61
2023/01/01 11:41:55;;;;;;;0.60;0.60;;;;;;;14.48;56.32;96025.72;4392082;32;20185;-61
2023/01/01 11:44:34;;;;;;;1.20;1.10;;;;;;;14.47;56.82;96018.81;4373997;32;20199;-61
2023/01/01 11:47:01;;;;;;;0.47;0.47;;;;;;;14.52;56.45;96025.94;4377394;32;20270;-61
2023/01/01 11:49:29;;;;;;;0.53;0.50;;;;;;;14.55;56.31;96011.97;4365970;32;20255;-62
2023/01/01 11:51:54;;;;;;;0.63;0.33;;;;;;;14.60;56.30;96019.84;4367232;32;20203;-61